Flight Track Log - Related Links

Times and Time Zones

All times are in EDT time to prevent confusion due to time zone crossing. See the CES2309 flight status page for this flight to view local times or setup timezone preferences in your user account.

Time Position Orientation Groundspeed Altitude Reporting Facility
EDT Latitude Longitude Course Direction KTS MPH feet Rate Location/Type
Wed 08:12:52 AM 30.9920 121.6610 296° West 9,100  Level FlightAware ADS-B
Wed 08:14:02 AM 31.0320 121.5620 295° West 11,300 1,886 Climbing FlightAware ADS-B
Wed 08:15:12 AM 31.0750 121.4570 296° West 13,700 2,057 Climbing FlightAware ADS-B
Wed 08:17:00 AM 31.1391 121.2880 294° West  Level Estimated
Wed 08:17:47 AM 31.2470 121.2550 294° West 18,600  Level FlightAware ADS-B
Wed 08:19:42 AM 31.4190 121.1360 329° Northwest 19,700 574 Climbing FlightAware ADS-B
Wed 08:20:32 AM 31.4980 121.0900 334° Northwest 19,700  Level FlightAware ADS-B
Wed 08:23:00 AM 31.5821 120.8554 293° West  Level Estimated
Wed 08:24:00 AM 31.6161 120.7602 293° West  Level Estimated
Wed 08:25:00 AM 31.6500 120.6649 293° West  Level Estimated
Wed 08:26:00 AM 31.6838 120.5696 293° West  Level Estimated
Wed 08:27:00 AM 31.7176 120.4742 293° West  Level Estimated
Wed 08:28:00 AM 31.7512 120.3787 293° West  Level Estimated
Wed 08:29:00 AM 31.7849 120.2831 293° West  Level Estimated
Wed 08:30:00 AM 31.8184 120.1875 292° West  Level Estimated
Wed 08:31:00 AM 31.8519 120.0918 292° West  Level Estimated
Wed 08:32:00 AM 31.8853 119.9960 292° West  Level Estimated
Wed 08:33:00 AM 31.9186 119.9002 292° West  Level Estimated
Wed 08:34:00 AM 31.9519 119.8043 292° West  Level Estimated
Wed 08:34:07 AM 32.2390 119.8740 292° West 30,100  Level FlightAware ADS-B
Wed 08:35:32 AM 32.2260 119.7000 265° West 30,100  Level FlightAware ADS-B
Wed 08:36:27 AM 32.1970 119.5950 252° West 30,100  Level FlightAware ADS-B
Wed 08:37:32 AM 32.1600 119.4580 252° West 30,100  Level FlightAware ADS-B
Wed 08:39:37 AM 32.0940 119.2060 253° West 30,300 96 Climbing FlightAware ADS-B
Wed 08:40:17 AM 32.0740 119.1300 253° West 31,400 1,650 Climbing FlightAware ADS-B
Wed 08:43:00 AM 32.1641 118.8688 292° West  Level Estimated
Wed 08:44:00 AM 32.1971 118.7725 292° West  Level Estimated
Wed 08:45:00 AM 32.2301 118.6762 292° West  Level Estimated
Wed 08:46:00 AM 32.2630 118.5798 292° West  Level Estimated
Wed 08:47:00 AM 32.2958 118.4833 292° West  Level Estimated
Wed 08:48:00 AM 32.3285 118.3867 292° West  Level Estimated
Wed 08:49:00 AM 32.3611 118.2901 292° West  Level Estimated
Wed 08:50:00 AM 32.3937 118.1934 292° West  Level Estimated
Wed 08:51:00 AM 32.4263 118.0966 292° West  Level Estimated
Wed 08:52:00 AM 32.4587 117.9998 292° West  Level Estimated
Wed 08:53:00 AM 32.4911 117.9028 292° West  Level Estimated
Wed 08:54:00 AM 32.5233 117.8059 292° West  Level Estimated
Wed 08:55:00 AM 32.5556 117.7088 292° West  Level Estimated
Wed 08:56:00 AM 32.5877 117.6117 291° West  Level Estimated
Wed 08:57:00 AM 32.6198 117.5145 291° West  Level Estimated
Wed 08:58:00 AM 32.6518 117.4173 291° West  Level Estimated
Wed 08:59:00 AM 32.6837 117.3199 291° West  Level Estimated
Wed 09:00:00 AM 32.7155 117.2225 291° West  Level Estimated
Wed 09:01:00 AM 32.7473 117.1251 291° West  Level Estimated
Wed 09:02:00 AM 32.7790 117.0276 291° West  Level Estimated
Wed 09:03:00 AM 32.8106 116.9300 291° West  Level Estimated
Wed 09:04:00 AM 32.8421 116.8323 291° West  Level Estimated
Wed 09:05:00 AM 32.8736 116.7346 291° West  Level Estimated
Wed 09:06:00 AM 32.9050 116.6367 291° West  Level Estimated
Wed 09:07:00 AM 32.9363 116.5389 291° West  Level Estimated
Wed 09:08:00 AM 32.9675 116.4409 291° West  Level Estimated
Wed 09:09:00 AM 32.9987 116.3429 291° West  Level Estimated
Wed 09:10:00 AM 33.0298 116.2448 291° West  Level Estimated
Wed 09:11:00 AM 33.0608 116.1466 291° West  Level Estimated
Wed 09:12:00 AM 33.0917 116.0484 291° West  Level Estimated
Wed 09:13:00 AM 33.1225 115.9501 291° West  Level Estimated
Wed 09:14:00 AM 33.1533 115.8518 291° West  Level Estimated
Wed 09:15:00 AM 33.1840 115.7533 290° West  Level Estimated
Wed 09:16:00 AM 33.2146 115.6548 290° West  Level Estimated
Wed 09:17:00 AM 33.2452 115.5563 290° West  Level Estimated
Wed 09:18:00 AM 33.2756 115.4576 290° West  Level Estimated
Wed 09:19:00 AM 33.3060 115.3589 290° West  Level Estimated
Wed 09:20:00 AM 33.3363 115.2601 290° West  Level Estimated
Wed 09:21:00 AM 33.3666 115.1613 290° West  Level Estimated
Wed 09:22:00 AM 33.3967 115.0624 290° West  Level Estimated
Wed 09:23:00 AM 33.4268 114.9634 290° West  Level Estimated
Wed 09:24:00 AM 33.4568 114.8643 290° West  Level Estimated
Wed 09:25:00 AM 33.4867 114.7652 290° West  Level Estimated
Wed 09:26:00 AM 33.5165 114.6660 290° West  Level Estimated
Wed 09:27:00 AM 33.5463 114.5668 290° West  Level Estimated
Wed 09:28:00 AM 33.5760 114.4675 290° West  Level Estimated
Wed 09:29:00 AM 33.6056 114.3681 290° West  Level Estimated
Wed 09:30:00 AM 33.6351 114.2686 290° West  Level Estimated
Wed 09:31:00 AM 33.6645 114.1691 290° West  Level Estimated
Wed 09:32:00 AM 33.6939 114.0695 290° West  Level Estimated
Wed 09:33:00 AM 33.7232 113.9698 289° West  Level Estimated
Wed 09:34:00 AM 33.7524 113.8701 289° West  Level Estimated
Wed 09:35:00 AM 33.7815 113.7703 289° West  Level Estimated
Wed 09:36:00 AM 33.8105 113.6704 289° West  Level Estimated
Wed 09:37:00 AM 33.8395 113.5705 289° West  Level Estimated
Wed 09:38:00 AM 33.8684 113.4705 289° West  Level Estimated
Wed 09:39:00 AM 33.8972 113.3704 289° West  Level Estimated
Wed 09:40:00 AM 33.9259 113.2703 289° West  Level Estimated
Wed 09:41:00 AM 33.9545 113.1701 289° West  Level Estimated
Wed 09:42:00 AM 33.9831 113.0698 289° West  Level Estimated
Wed 09:43:00 AM 34.0115 112.9694 289° West  Level Estimated
Wed 09:44:00 AM 34.0399 112.8690 289° West  Level Estimated
Wed 09:45:00 AM 34.0682 112.7685 289° West  Level Estimated
Wed 09:46:00 AM 34.0965 112.6680 289° West  Level Estimated
Wed 09:47:00 AM 34.1246 112.5674 289° West  Level Estimated
Wed 09:48:00 AM 34.1526 112.4667 289° West  Level Estimated
Wed 09:49:00 AM 34.1806 112.3660 289° West  Level Estimated
Wed 09:50:00 AM 34.2085 112.2652 289° West  Level Estimated
Wed 09:51:00 AM 34.2363 112.1643 288° West  Level Estimated
Wed 09:52:00 AM 34.2641 112.0633 288° West  Level Estimated
Wed 09:53:00 AM 34.2917 111.9623 288° West  Level Estimated
Wed 09:54:00 AM 34.3193 111.8613 288° West  Level Estimated
Wed 09:55:00 AM 34.3468 111.7601 288° West  Level Estimated
Wed 09:56:00 AM 34.3742 111.6589 288° West  Level Estimated
Wed 09:57:00 AM 34.4015 111.5576 288° West  Level Estimated
Wed 09:58:00 AM 34.4287 111.4563 288° West  Level Estimated
Wed 09:59:00 AM 34.4559 111.3549 288° West  Level Estimated
Wed 10:00:00 AM 34.4829 111.2534 288° West  Level Estimated
Wed 10:01:00 AM 34.5099 111.1519 288° West  Level Estimated
Wed 10:02:00 AM 34.5368 111.0503 288° West  Level Estimated
Wed 10:03:00 AM 34.5636 110.9486 288° West  Level Estimated
Wed 10:04:00 AM 34.5904 110.8469 288° West  Level Estimated
Wed 10:05:00 AM 34.6170 110.7451 288° West  Level Estimated
Wed 10:06:00 AM 34.6436 110.6432 288° West  Level Estimated
Wed 10:07:00 AM 34.6700 110.5413 288° West  Level Estimated
Wed 10:08:00 AM 34.6964 110.4393 287° West  Level Estimated
Wed 10:09:00 AM 34.7227 110.3372 287° West  Level Estimated
Wed 10:10:00 AM 34.7490 110.2351 287° West  Level Estimated
Wed 10:11:00 AM 34.7751 110.1329 287° West  Level Estimated
Wed 10:12:00 AM 34.8011 110.0306 287° West  Level Estimated
Wed 10:13:00 AM 34.8271 109.9283 287° West  Level Estimated
Wed 10:14:00 AM 34.8530 109.8259 287° West  Level Estimated
Wed 10:15:00 AM 34.8788 109.7235 287° West  Level Estimated
Wed 10:16:00 AM 34.9045 109.6210 287° West  Level Estimated
Wed 10:17:00 AM 34.9301 109.5184 287° West  Level Estimated
Wed 10:18:00 AM 34.9556 109.4157 287° West  Level Estimated
Wed 10:19:00 AM 34.9811 109.3130 287° West  Level Estimated
Wed 10:20:00 AM 35.0064 109.2103 287° West  Level Estimated
Wed 10:21:00 AM 35.0317 109.1075 287° West  Level Estimated
Wed 10:22:00 AM 35.0569 109.0045 287° West  Level Estimated
Wed 10:23:00 AM 35.0820 108.9016 287° West  Level Estimated
Wed 10:24:00 AM 35.1070 108.7986 287° West  Level Estimated
Wed 10:25:00 AM 35.1319 108.6955 286° West  Level Estimated
Wed 10:26:00 AM 35.1568 108.5923 286° West  Level Estimated
Wed 10:27:00 AM 35.1815 108.4891 286° West  Level Estimated
Wed 10:28:00 AM 35.2062 108.3858 286° West  Level Estimated
Wed 10:29:00 AM 35.2308 108.2825 286° West  Level Estimated
Wed 10:30:00 AM 35.2553 108.1791 286° West  Level Estimated
Wed 10:31:00 AM 35.2797 108.0757 286° West  Level Estimated
Wed 10:32:00 AM 35.3040 107.9721 286° West  Level Estimated
Wed 10:33:00 AM 35.3282 107.8685 286° West  Level Estimated
Wed 10:34:00 AM 35.3523 107.7649 286° West  Level Estimated
Wed 10:35:00 AM 35.3764 107.6612 286° West  Level Estimated
Wed 10:36:00 AM 35.4003 107.5574 286° West  Level Estimated
Wed 10:37:00 AM 35.4242 107.4536 286° West  Level Estimated
Wed 10:38:00 AM 35.4480 107.3497 286° West  Level Estimated
Wed 10:39:00 AM 35.4717 107.2457 286° West  Level Estimated
Wed 10:40:00 AM 35.4953 107.1417 286° West  Level Estimated
Wed 10:41:00 AM 35.5188 107.0376 286° West  Level Estimated
Wed 10:42:00 AM 35.5422 106.9335 285° West  Level Estimated
Wed 10:43:00 AM 35.5655 106.8293 285° West  Level Estimated
Wed 10:44:00 AM 35.5888 106.7250 285° West  Level Estimated
Wed 10:45:00 AM 35.6119 106.6207 285° West  Level Estimated
Wed 10:46:00 AM 35.6350 106.5163 285° West  Level Estimated
Wed 10:47:00 AM 35.6580 106.4119 285° West  Level Estimated
Wed 10:48:00 AM 35.6809 106.3074 285° West  Level Estimated
Wed 10:49:00 AM 35.7036 106.2028 285° West  Level Estimated
Wed 10:50:00 AM 35.7263 106.0982 285° West  Level Estimated
Wed 10:51:00 AM 35.7490 105.9935 285° West  Level Estimated
Wed 10:52:00 AM 35.7715 105.8888 285° West  Level Estimated
Wed 10:53:00 AM 35.7939 105.7840 285° West  Level Estimated
Wed 10:54:00 AM 35.8162 105.6791 285° West  Level Estimated
Wed 10:55:00 AM 35.8385 105.5742 285° West  Level Estimated
Wed 10:56:00 AM 35.8606 105.4692 285° West  Level Estimated
Wed 10:57:00 AM 35.8827 105.3642 285° West  Level Estimated
Wed 10:58:00 AM 35.9047 105.2591 285° West  Level Estimated
Wed 10:59:00 AM 35.9266 105.1540 284° West  Level Estimated
Wed 11:00:00 AM 35.9484 105.0488 284° West  Level Estimated
Wed 11:01:00 AM 35.9701 104.9435 284° West  Level Estimated
Wed 11:02:00 AM 35.9917 104.8382 284° West  Level Estimated
Wed 11:03:00 AM 36.0132 104.7328 284° West  Level Estimated
Wed 11:04:00 AM 36.0346 104.6273 284° West  Level Estimated
Wed 11:05:00 AM 36.0560 104.5219 284° West  Level Estimated
Wed 11:06:00 AM 36.0772 104.4163 284° West  Level Estimated
Wed 11:07:00 AM 36.0983 104.3107 284° West  Level Estimated
Wed 11:08:00 AM 36.1194 104.2050 284° West  Level Estimated
Wed 11:09:00 AM 36.1404 104.0993 284° West  Level Estimated
Wed 11:10:00 AM 36.1612 103.9935 284° West  Level Estimated
Wed 11:11:00 AM 36.1820 103.8877 284° West  Level Estimated
Wed 11:12:00 AM 36.2027 103.7818 284° West  Level Estimated
Wed 11:13:00 AM 36.2233 103.6758 284° West  Level Estimated
Wed 11:14:00 AM 36.2438 103.5698 284° West  Level Estimated
Wed 11:15:00 AM 36.2642 103.4638 283° West  Level Estimated
Wed 11:16:00 AM 36.2845 103.3577 283° West  Level Estimated
Wed 11:17:00 AM 36.3047 103.2515 283° West  Level Estimated
Wed 11:18:00 AM 36.3248 103.1453 283° West  Level Estimated
Wed 11:19:00 AM 36.3448 103.0390 283° West  Level Estimated
Wed 11:20:00 AM 36.3648 102.9327 283° West  Level Estimated
Wed 11:21:00 AM 36.3846 102.8263 283° West  Level Estimated
Wed 11:22:00 AM 36.4044 102.7198 283° West  Level Estimated
Wed 11:23:00 AM 36.4240 102.6133 283° West  Level Estimated
Wed 11:24:00 AM 36.4436 102.5068 283° West  Level Estimated
Wed 11:25:00 AM 36.4630 102.4002 283° West  Level Estimated
Wed 11:26:00 AM 36.4824 102.2935 283° West  Level Estimated
Wed 11:27:00 AM 36.5017 102.1868 283° West  Level Estimated
Wed 11:28:00 AM 36.5208 102.0801 283° West  Level Estimated
Wed 11:29:00 AM 36.5275 102.0428 283° West  Level Estimated
Wed 11:30:00 AM 36.5275 102.0428 270° West  Level Estimated
Wed 11:31:00 AM 36.5275 102.0428 270° West  Level Estimated
Wed 11:32:00 AM 36.5275 102.0428 270° West  Level Estimated
Wed 11:33:00 AM 36.5275 102.0428 270° West  Level Estimated
Wed 11:34:00 AM 36.5275 102.0428 270° West  Level Estimated
Wed 11:35:00 AM 36.5275 102.0428 270° West  Level Estimated
Wed 11:36:00 AM 36.5275 102.0428 270° West  Level Estimated
Wed 11:37:00 AM 36.5275 102.0428 270° West  Level Estimated
Wed 11:38:00 AM 36.5275 102.0428 270° West  Level Estimated

Login

Don't have an account? Register now (free) for customized features, flight alerts, and more!